Time;durP1;ratioP1;P1;durP2;ratioP2;P2;SDS_P1;SDS_P2;PMS_P1;PMS_P2;Temp;Humidity;BMP_temperature;BMP_pressure;BME280_temperature;BME280_humidity;BME280_pressure;Samples;Min_cycle;Max_cycle;Signal;HPM_P1;HPM_P2
2021/11/27 00:02:02;;;;;;;;;;;;;;;2.90;86.93;96728.50;4936728;29;20333;-85
2021/11/27 00:04:27;;;;;;;;;;;;;;;2.89;86.84;96734.69;4954741;28;19918;-87
2021/11/27 00:06:53;;;;;;;;;;;;;;;2.90;86.51;96736.34;4937795;29;20012;-86
2021/11/27 00:09:18;;;;;;;;;;;;;;;2.88;86.27;96740.84;4932186;28;19918;-89
2021/11/27 00:11:43;;;;;;;;;;;;;;;2.84;86.41;96741.94;4954379;28;19928;-85
2021/11/27 00:14:09;;;;;;;;;;;;;;;2.90;86.90;96733.72;4937429;29;19922;-85
2021/11/27 00:16:35;;;;;;;;;;;;;;;2.87;86.75;96731.28;4936140;29;19933;-85
2021/11/27 00:19:01;;;;;;;;;;;;;;;2.85;86.05;96730.56;4936876;29;19984;-87
2021/11/27 00:21:27;;;;;;;;;;;;;;;2.82;85.66;96715.03;4937446;29;20374;-85
2021/11/27 00:23:53;;;;;;;;;;;;;;;2.83;85.91;96722.81;4937488;29;19926;-85
2021/11/27 00:26:19;;;;;;;;;;;;;;;2.86;85.93;96724.41;4954907;28;19923;-86
2021/11/27 00:28:44;;;;;;;;;;;;;;;3.71;87.33;96717.38;4954452;28;20418;-85
2021/11/27 00:31:12;;;;;;;;;;;;;;;3.37;86.54;96714.28;4937470;29;19923;-87
2021/11/27 00:33:37;;;;;;;;;;;;;;;3.25;86.71;96712.41;4936064;29;19922;-84
2021/11/27 00:36:06;;;;;;;;;;;;;;;3.23;86.77;96706.44;4937719;29;19978;-87
2021/11/27 00:38:31;;;;;;;;;;;;;;;3.15;86.05;96709.53;4937174;29;19922;-87
2021/11/27 00:40:57;;;;;;;;;;;;;;;3.16;85.59;96702.50;4933031;29;20033;-87
2021/11/27 00:43:22;;;;;;;;;;;;;;;3.15;85.27;96700.84;4936420;28;19929;-88
2021/11/27 00:45:48;;;;;;;;;;;;;;;3.14;84.85;96705.22;4954778;28;19926;-88
2021/11/27 00:48:14;;;;;;;;;;;;;;;3.11;84.29;96699.34;4952604;28;20017;-85
2021/11/27 00:50:43;;;;;;;;;;;;;;;3.12;83.79;96696.63;4954289;28;20326;-88
2021/11/27 00:53:08;;;;;;;;;;;;;;;3.24;85.37;96702.91;4953849;28;19972;-88
2021/11/27 00:55:34;;;;;;;;;;;;;;;3.24;87.12;96700.28;4953809;28;19918;-88
2021/11/27 00:58:00;;;;;;;;;;;;;;;3.28;89.11;96701.75;4953461;29;19927;-85
2021/11/27 01:00:30;;;;;;;;;;;;;;;3.60;92.58;96696.28;4937227;28;19930;-84
2021/11/27 01:02:56;;;;;;;;;;;;;;;4.13;98.36;96689.34;4935409;29;20377;-85
2021/11/27 01:05:21;;;;;;;;;;;;;;;4.47;100.00;96691.50;4952009;29;19922;-85
2021/11/27 04:14:38;;;;;;;;;;;;;;;2.73;98.64;96675.44;5492869;23;19932;-84
2021/11/27 04:17:03;;;;;;;;;;;;;;;2.56;97.40;96686.09;4958320;28;20005;-87
2021/11/27 04:19:28;;;;;;;;;;;;;;;2.51;96.78;96688.13;4962921;28;19914;-85
2021/11/27 04:21:54;;;;;;;;;;;;;;;2.30;95.17;96690.25;4963638;28;20366;-84
2021/11/27 04:24:19;;;;;;;;;;;;;;;2.28;94.77;96695.56;4964369;28;19914;-84
2021/11/27 04:26:44;;;;;;;;;;;;;;;2.23;94.51;96696.75;4962229;28;19919;-88
2021/11/27 04:29:09;;;;;;;;;;;;;;;2.18;96.06;96695.25;4961724;28;20282;-90
2021/11/27 04:31:35;;;;;;;;;;;;;;;2.14;96.42;96696.38;4963156;28;19922;-89
2021/11/27 04:34:00;;;;;;;;;;;;;;;1.99;95.84;96694.63;4962996;28;19952;-88
2021/11/27 04:36:25;;;;;;;;;;;;;;;1.89;95.30;96699.53;4963270;28;20012;-84
2021/11/27 04:38:51;;;;;;;;;;;;;;;1.76;95.07;96703.78;4964824;28;20290;-85
2021/11/27 04:41:16;;;;;;;;;;;;;;;1.79;94.64;96711.44;4963039;28;19922;-85
2021/11/27 04:43:41;;;;;;;;;;;;;;;1.66;94.17;96718.28;4961411;28;20285;-84
2021/11/27 04:46:07;;;;;;;;;;;;;;;1.55;93.18;96717.13;4964298;28;20364;-84
2021/11/27 04:48:32;;;;;;;;;;;;;;;1.41;93.11;96722.25;4962748;28;19989;-84
2021/11/27 04:50:58;;;;;;;;;;;;;;;1.86;95.62;96725.81;4964775;28;19918;-85
2021/11/27 04:53:23;;;;;;;;;;;;;;;2.17;98.17;96726.69;4962786;28;20385;-86
2021/11/27 04:55:48;;;;;;;;;;;;;;;2.45;100.00;96725.91;4962818;28;20273;-86
2021/11/27 04:58:14;;;;;;;;;;;;;;;2.63;100.00;96726.63;4962187;28;20374;-85
2021/11/27 05:00:42;;;;;;;;;;;;;;;2.72;100.00;96728.66;4994597;28;19924;-87
2021/11/27 05:03:07;;;;;;;;;;;;;;;2.75;100.00;96735.50;4964089;28;19922;-86
2021/11/27 05:05:33;;;;;;;;;;;;;;;2.79;100.00;96736.16;4963781;28;20486;-84
2021/11/27 05:07:58;;;;;;;;;;;;;;;2.82;100.00;96734.19;4963539;28;20277;-85
2021/11/27 05:10:24;;;;;;;;;;;;;;;2.85;100.00;96735.78;4963532;28;19922;-87
2021/11/27 05:12:49;;;;;;;;;;;;;;;3.06;100.00;96738.88;4963821;28;19918;-90
2021/11/27 05:15:15;;;;;;;;;;;;;;;3.32;100.00;96736.41;4961435;28;19930;-85
2021/11/27 05:17:40;;;;;;;;;;;;;;;3.28;100.00;96734.00;4961317;28;19984;-85
2021/11/27 05:20:06;;;;;;;;;;;;;;;3.27;100.00;96736.72;4962786;28;20297;-84
2021/11/27 05:22:31;;;;;;;;;;;;;;;3.20;100.00;96743.28;4962501;28;19926;-85
2021/11/27 05:24:57;;;;;;;;;;;;;;;3.14;100.00;96744.47;4962554;28;19925;-87
2021/11/27 05:27:22;;;;;;;;;;;;;;;3.14;100.00;96749.69;4963260;28;20303;-85
2021/11/27 05:29:49;;;;;;;;;;;;;;;3.21;100.00;96750.19;4968889;28;19922;-85
2021/11/27 05:32:26;;;;;;;;;;;;;;;3.11;100.00;96756.91;4962679;28;19973;-85
2021/11/27 05:34:52;;;;;;;;;;;;;;;3.14;100.00;96752.31;4962248;28;19978;-84
2021/11/27 05:37:18;;;;;;;;;;;;;;;3.09;100.00;96757.84;4961801;28;19925;-85
2021/11/27 05:39:44;;;;;;;;;;;;;;;3.14;100.00;96767.19;4962181;28;19926;-87
2021/11/27 05:42:11;;;;;;;;;;;;;;;3.07;100.00;96777.19;4963467;28;19922;-86
2021/11/27 05:44:36;;;;;;;;;;;;;;;3.17;100.00;96775.69;4960593;28;19933;-85
2021/11/27 05:47:01;;;;;;;;;;;;;;;3.14;100.00;96783.72;4962231;28;19922;-84
2021/11/27 05:49:27;;;;;;;;;;;;;;;3.08;100.00;96784.94;4962556;28;19926;-86
2021/11/27 05:51:52;;;;;;;;;;;;;;;3.06;100.00;96784.22;4962087;28;19918;-89
2021/11/27 05:54:17;;;;;;;;;;;;;;;3.06;100.00;96773.75;4963112;28;19922;-85
2021/11/27 05:56:43;;;;;;;;;;;;;;;3.05;100.00;96779.06;4962054;28;19925;-85
2021/11/27 05:59:08;;;;;;;;;;;;;;;3.01;100.00;96780.16;4961086;28;20017;-85
2021/11/27 06:01:33;;;;;;;;;;;;;;;2.92;100.00;96781.56;4961437;28;19918;-84
2021/11/27 06:03:58;;;;;;;;;;;;;;;2.91;100.00;96787.72;4962370;28;19929;-86
2021/11/27 06:06:24;;;;;;;;;;;;;;;2.94;100.00;96791.94;4963171;28;20009;-88
2021/11/27 06:08:49;;;;;;;;;;;;;;;2.91;100.00;96798.19;4962083;28;20394;-90
2021/11/27 08:54:09;;;;;;;;;;;;;;;3.03;80.59;96980.59;5227356;23;20602;-85
2021/11/27 08:56:35;;;;;;;;;;;;;;;3.06;80.49;96990.88;4994610;28;19922;-87
2021/11/27 08:59:00;;;;;;;;;;;;;;;3.06;80.44;96980.41;4963339;28;19922;-87
2021/11/27 09:01:26;;;;;;;;;;;;;;;3.06;80.05;96990.88;4964157;28;19918;-84
2021/11/27 09:03:51;;;;;;;;;;;;;;;3.05;80.14;96991.81;4963387;28;19922;-84
2021/11/27 09:06:16;;;;;;;;;;;;;;;3.08;80.21;96999.47;4964236;28;19957;-84
2021/11/27 09:08:42;;;;;;;;;;;;;;;3.08;80.25;97004.72;4961520;28;19921;-85
2021/11/27 09:11:09;;;;;;;;;;;;;;;3.11;79.98;97001.06;4962660;28;20009;-84
2021/11/27 09:13:35;;;;;;;;;;;;;;;3.14;79.78;97002.66;4961085;28;20000;-85
2021/11/27 09:16:00;;;;;;;;;;;;;;;3.16;79.63;97006.03;4962950;28;19922;-85
2021/11/27 09:18:28;;;;;;;;;;;;;;;3.16;79.61;97011.28;4962561;28;20374;-85
2021/11/27 09:20:53;;;;;;;;;;;;;;;3.16;79.42;97006.03;4962381;28;20500;-85
2021/11/27 09:23:18;;;;;;;;;;;;;;;3.18;79.30;97022.50;4961434;28;20008;-88
2021/11/27 09:25:44;;;;;;;;;;;;;;;3.17;79.22;97023.44;4962597;28;19914;-84
2021/11/27 09:28:09;;;;;;;;;;;;;;;3.19;79.22;97037.25;4962255;28;19918;-86
2021/11/27 09:30:34;;;;;;;;;;;;;;;3.17;79.07;97049.59;4962548;28;20012;-84
2021/11/27 09:33:00;;;;;;;;;;;;;;;3.20;78.90;97049.44;4962087;28;19986;-89
2021/11/27 09:35:25;;;;;;;;;;;;;;;3.20;78.78;97050.25;4962296;28;19922;-84
2021/11/27 09:37:51;;;;;;;;;;;;;;;3.24;78.71;97053.56;4962655;28;20013;-87
2021/11/27 09:40:17;;;;;;;;;;;;;;;3.24;78.67;97057.03;4963395;28;20284;-84
2021/11/27 09:42:43;;;;;;;;;;;;;;;3.23;78.56;97064.97;4993489;28;20061;-91
2021/11/27 09:45:09;;;;;;;;;;;;;;;3.25;78.45;97065.72;4994303;28;19918;-92
2021/11/27 09:47:35;;;;;;;;;;;;;;;3.24;78.14;97080.56;4961615;28;19928;-87
2021/11/27 09:50:04;;;;;;;;;;;;;;;3.25;78.09;97081.41;4963372;28;19958;-88
2021/11/27 09:52:29;;;;;;;;;;;;;;;3.29;77.83;97096.03;4968919;28;19918;-89
2021/11/27 09:54:55;;;;;;;;;;;;;;;3.30;77.98;97100.31;4962208;28;19933;-85
2021/11/27 09:57:20;;;;;;;;;;;;;;;3.31;77.74;97104.63;4963509;28;19993;-84
2021/11/27 09:59:47;;;;;;;;;;;;;;;3.33;77.68;97101.94;4963198;28;19923;-90
2021/11/27 10:02:13;;;;;;;;;;;;;;;3.31;77.66;97103.78;4962224;28;19918;-85
2021/11/27 10:04:41;;;;;;;;;;;;;;;3.37;77.65;97103.44;4963381;28;19918;-89
2021/11/27 10:07:10;;;;;;;;;;;;;;;3.35;77.52;97089.59;4963046;28;19923;-84
2021/11/27 10:09:36;;;;;;;;;;;;;;;3.38;77.34;97095.50;4961630;28;19969;-86
2021/11/27 10:12:07;;;;;;;;;;;;;;;3.40;77.23;97105.91;4963221;28;19926;-87
2021/11/27 10:14:32;;;;;;;;;;;;;;;3.44;77.44;97107.41;4962899;28;19919;-84
2021/11/27 10:17:00;;;;;;;;;;;;;;;3.44;77.25;97105.59;4963571;28;19925;-85
2021/11/27 10:19:27;;;;;;;;;;;;;;;3.45;77.18;97109.09;4962310;28;19927;-90
2021/11/27 10:21:57;;;;;;;;;;;;;;;3.48;77.25;97110.66;4963256;28;19917;-84
2021/11/27 10:24:24;;;;;;;;;;;;;;;3.50;77.21;97117.53;4964011;28;19918;-88
2021/11/27 10:26:50;;;;;;;;;;;;;;;3.52;77.13;97112.19;4966757;28;20008;-89
2021/11/27 10:29:15;;;;;;;;;;;;;;;3.51;76.95;97116.59;4965255;28;19922;-91
2021/11/27 10:31:41;;;;;;;;;;;;;;;3.55;77.05;97114.66;4966685;28;19933;-89
2021/11/27 10:34:06;;;;;;;;;;;;;;;3.57;77.08;97103.13;4966177;28;19922;-85
2021/11/27 10:36:31;;;;;;;;;;;;;;;3.58;77.08;97110.06;4965691;28;20013;-88
2021/11/27 10:39:03;;;;;;;;;;;;;;;3.59;77.07;97108.28;4972067;28;19922;-87
2021/11/27 10:41:35;;;;;;;;;;;;;;;3.60;77.23;97100.34;4964470;28;20012;-84
2021/11/27 10:44:02;;;;;;;;;;;;;;;3.63;77.23;97107.19;4966863;28;19925;-89
2021/11/27 10:46:28;;;;;;;;;;;;;;;3.65;77.39;97105.31;4966195;28;19969;-89
2021/11/27 10:48:54;;;;;;;;;;;;;;;3.68;77.47;97101.69;4966345;28;19925;-89
2021/11/27 10:51:20;;;;;;;;;;;;;;;3.69;77.21;97113.88;4965136;28;19922;-91
2021/11/27 10:53:52;;;;;;;;;;;;;;;3.69;77.33;97112.09;4964915;28;20357;-84
2021/11/27 10:56:17;;;;;;;;;;;;;;;3.72;77.22;97113.66;4966025;28;19918;-89
2021/11/27 10:59:02;;;;;;;;;;;;;;;3.73;77.33;97104.88;4966165;28;19918;-85
2021/11/27 11:01:28;;;;;;;;;;;;;;;3.74;77.03;97112.66;4996407;28;20037;-91
2021/11/27 11:03:53;;;;;;;;;;;;;;;3.76;77.05;97118.63;4966103;28;19958;-88
2021/11/27 11:06:20;;;;;;;;;;;;;;;3.75;76.88;97119.59;4966148;28;20397;-88
2021/11/27 11:08:47;;;;;;;;;;;;;;;3.79;76.74;97120.25;4995709;28;20046;-85
2021/11/27 11:11:18;;;;;;;;;;;;;;;3.79;76.69;97131.56;4997135;28;19926;-84
2021/11/27 11:13:52;;;;;;;;;;;;;;;3.82;76.63;97133.16;4965227;28;20189;-86
2021/11/27 11:16:18;;;;;;;;;;;;;;;3.85;76.73;97129.53;4966612;28;19974;-85
2021/11/27 11:18:45;;;;;;;;;;;;;;;3.82;76.58;97136.63;4965867;28;19965;-86
2021/11/27 11:21:10;;;;;;;;;;;;;;;3.84;76.61;97133.91;4965769;28;20563;-85
2021/11/27 11:23:36;;;;;;;;;;;;;;;3.86;76.46;97137.31;4964240;28;20009;-84
2021/11/27 11:26:09;;;;;;;;;;;;;;;3.89;76.35;97139.72;4965572;28;19929;-88
2021/11/27 11:28:39;;;;;;;;;;;;;;;3.90;76.21;97144.03;4963530;28;19919;-89
2021/11/27 11:31:10;;;;;;;;;;;;;;;3.92;76.13;97141.34;4963934;28;20017;-89
2021/11/27 11:33:37;;;;;;;;;;;;;;;3.95;76.41;97141.16;4965702;28;19926;-87
2021/11/27 11:36:04;;;;;;;;;;;;;;;3.95;76.22;97146.41;4964693;28;19928;-87
2021/11/27 11:38:29;;;;;;;;;;;;;;;3.96;76.34;97143.69;4964369;28;19918;-89
2021/11/27 11:40:55;;;;;;;;;;;;;;;3.98;76.41;97146.22;4965657;28;19922;-89
2021/11/27 11:43:20;;;;;;;;;;;;;;;4.00;76.28;97152.22;4965785;28;19927;-89
2021/11/27 11:45:45;;;;;;;;;;;;;;;3.98;76.19;97161.94;4971866;28;20338;-85
2021/11/27 11:48:11;;;;;;;;;;;;;;;4.00;76.16;97154.84;4970914;28;19958;-87
2021/11/27 11:50:42;;;;;;;;;;;;;;;4.00;76.09;97155.69;4964927;28;19947;-90
2021/11/27 11:53:11;;;;;;;;;;;;;;;3.99;76.06;97154.00;4963928;28;19922;-88
2021/11/27 11:55:37;;;;;;;;;;;;;;;4.00;76.07;97149.59;4965340;28;20005;-88
2021/11/27 11:58:02;;;;;;;;;;;;;;;4.03;76.18;97153.81;4964394;28;19961;-90
2021/11/27 12:00:28;;;;;;;;;;;;;;;4.02;76.29;97147.75;4965152;28;19966;-90
2021/11/27 12:03:02;;;;;;;;;;;;;;;4.07;76.49;97148.31;4963635;28;19984;-86
2021/11/27 12:05:29;;;;;;;;;;;;;;;4.06;76.48;97154.47;4971579;28;20009;-86
2021/11/27 12:07:57;;;;;;;;;;;;;;;4.07;76.62;97155.31;4963539;28;19922;-87
2021/11/27 12:10:28;;;;;;;;;;;;;;;4.08;76.81;97151.78;4965782;28;19918;-91
2021/11/27 12:13:06;;;;;;;;;;;;;;;4.07;76.83;97150.94;4964898;28;19914;-91
2021/11/27 12:15:32;;;;;;;;;;;;;;;4.11;77.12;97148.97;4967468;28;19965;-91
2021/11/27 12:18:18;;;;;;;;;;;;;;;4.09;77.07;97149.06;4963915;28;19929;-91
2021/11/27 12:20:47;;;;;;;;;;;;;;;4.11;77.05;97152.44;4964425;28;20001;-86
2021/11/27 12:23:43;;;;;;;;;;;;;;;4.16;76.95;97154.78;4963393;28;19985;-84
2021/11/27 12:26:09;;;;;;;;;;;;;;;4.15;76.98;97161.81;4994573;28;19964;-87
2021/11/27 12:28:36;;;;;;;;;;;;;;;4.16;77.09;97147.78;4963673;28;19954;-86
2021/11/27 12:31:08;;;;;;;;;;;;;;;4.19;77.25;97160.69;4964528;28;20382;-85
2021/11/27 12:33:40;;;;;;;;;;;;;;;4.18;77.22;97161.63;4964167;28;19965;-87
2021/11/27 12:36:05;;;;;;;;;;;;;;;4.20;77.29;97161.53;4964548;28;19925;-85
2021/11/27 12:38:31;;;;;;;;;;;;;;;4.18;77.34;97156.38;4962218;28;19922;-85
2021/11/27 12:40:58;;;;;;;;;;;;;;;4.24;77.44;97160.41;4966245;28;20005;-91
2021/11/27 12:43:23;;;;;;;;;;;;;;;4.25;77.48;97164.72;4964872;28;19930;-89
2021/11/27 12:45:50;;;;;;;;;;;;;;;4.26;77.63;97157.69;4965787;28;19922;-89
2021/11/27 12:48:34;;;;;;;;;;;;;;;4.26;77.49;97162.94;4964067;28;19968;-87
2021/11/27 12:51:18;;;;;;;;;;;;;;;4.35;77.82;97165.03;4965437;28;19930;-88
2021/11/27 12:53:59;;;;;;;;;;;;;;;4.54;79.18;97168.22;4971787;28;19936;-91
2021/11/27 12:56:25;;;;;;;;;;;;;;;4.69;80.69;97169.09;4972681;28;19922;-85
2021/11/27 12:58:50;;;;;;;;;;;;;;;4.77;81.97;97171.25;4962826;28;19922;-85
2021/11/27 13:01:33;;;;;;;;;;;;;;;4.80;83.18;97175.47;4963307;28;19933;-85
2021/11/27 13:03:59;;;;;;;;;;;;;;;4.81;84.16;97167.50;4971288;28;19969;-91
2021/11/27 13:06:25;;;;;;;;;;;;;;;4.80;84.92;97171.03;4964121;28;20028;-93
2021/11/27 13:08:50;;;;;;;;;;;;;;;4.77;85.66;97176.50;4959583;28;20090;-88
2021/11/27 13:11:20;;;;;;;;;;;;;;;4.72;86.18;97173.31;4961985;28;20043;-94
2021/11/27 13:13:47;;;;;;;;;;;;;;;4.63;86.77;97166.84;4995302;28;19918;-89
2021/11/27 13:16:14;;;;;;;;;;;;;;;4.55;87.03;97174.34;4961942;28;19919;-85
2021/11/27 13:18:46;;;;;;;;;;;;;;;4.41;87.65;97167.28;4963677;28;20509;-92
2021/11/27 13:21:12;;;;;;;;;;;;;;;4.33;88.55;97170.34;4970284;28;20289;-85
2021/11/27 13:23:40;;;;;;;;;;;;;;;4.27;89.62;97175.13;4961272;28;19918;-92
2021/11/27 13:26:07;;;;;;;;;;;;;;;4.27;91.52;97172.50;4963622;28;20385;-93
2021/11/27 13:28:34;;;;;;;;;;;;;;;4.34;93.69;97173.81;4962371;28;19926;-85
2021/11/27 13:31:00;;;;;;;;;;;;;;;4.49;96.65;97172.06;4961571;28;19926;-90
2021/11/27 13:33:27;;;;;;;;;;;;;;;4.74;100.00;97181.94;4964157;28;19918;-85
2021/11/27 13:35:53;;;;;;;;;;;;;;;4.94;100.00;97172.00;4962746;28;19957;-90
2021/11/27 13:38:28;;;;;;;;;;;;;;;5.06;100.00;97177.34;4969105;28;19987;-92
2021/11/27 13:40:54;;;;;;;;;;;;;;;5.18;100.00;97180.13;4978120;28;19918;-93
2021/11/27 13:43:19;;;;;;;;;;;;;;;5.27;100.00;97174.31;4964049;28;19922;-92
2021/11/27 13:45:44;;;;;;;;;;;;;;;5.33;100.00;97179.19;4962790;28;20005;-85
2021/11/27 13:48:10;;;;;;;;;;;;;;;5.40;100.00;97179.63;4963031;28;19968;-87
2021/11/27 13:50:40;;;;;;;;;;;;;;;5.46;100.00;97180.09;4962304;28;19929;-84
2021/11/27 13:53:05;;;;;;;;;;;;;;;5.50;100.00;97185.13;4960535;28;19944;-86
2021/11/27 13:55:31;;;;;;;;;;;;;;;5.56;100.00;97177.72;4963690;28;20370;-85
2021/11/27 13:57:58;;;;;;;;;;;;;;;5.60;100.00;97194.97;4962214;28;20303;-85
2021/11/27 14:00:28;;;;;;;;;;;;;;;5.63;100.00;97197.41;4966004;28;19922;-85
2021/11/27 14:03:04;;;;;;;;;;;;;;;5.70;100.00;97207.53;4965781;28;20432;-84
2021/11/27 14:05:30;;;;;;;;;;;;;;;5.72;100.00;97198.59;4973892;28;19964;-85
2021/11/27 14:07:56;;;;;;;;;;;;;;;5.75;100.00;97197.56;4966357;28;19918;-84
2021/11/27 14:10:23;;;;;;;;;;;;;;;5.78;100.00;97200.00;4972964;28;19923;-86
2021/11/27 14:12:52;;;;;;;;;;;;;;;5.83;100.00;97201.34;4967189;28;20295;-86
2021/11/27 14:15:19;;;;;;;;;;;;;;;5.84;100.00;97199.59;4965585;28;19929;-85
2021/11/27 14:18:05;;;;;;;;;;;;;;;5.83;100.00;97203.16;4966142;28;19922;-87
2021/11/27 14:20:35;;;;;;;;;;;;;;;5.84;100.00;97204.84;4981989;28;19918;-85
2021/11/27 14:23:01;;;;;;;;;;;;;;;5.87;100.00;97204.66;4972143;28;19981;-86
2021/11/27 14:25:27;;;;;;;;;;;;;;;5.91;100.00;97213.19;4965823;28;20374;-85
2021/11/27 14:27:54;;;;;;;;;;;;;;;5.33;100.00;97215.09;4965211;28;20366;-86
2021/11/27 14:30:21;;;;;;;;;;;;;;;4.85;100.00;97213.63;4965332;28;19925;-89
2021/11/27 14:32:46;;;;;;;;;;;;;;;4.55;100.00;97214.50;4966549;28;19945;-85
2021/11/27 14:35:28;;;;;;;;;;;;;;;4.43;100.00;97217.84;4965452;28;19918;-86
2021/11/27 14:37:53;;;;;;;;;;;;;;;4.33;100.00;97224.56;4965955;28;19918;-85
2021/11/27 14:40:18;;;;;;;;;;;;;;;4.21;100.00;97217.41;4965375;28;19925;-90
2021/11/27 14:42:44;;;;;;;;;;;;;;;4.11;100.00;97215.31;4965500;28;20309;-84
2021/11/27 14:45:09;;;;;;;;;;;;;;;4.03;99.19;97222.78;4966380;28;19918;-84
2021/11/27 14:47:41;;;;;;;;;;;;;;;3.99;97.39;97223.91;4965587;28;20366;-87
2021/11/27 14:50:10;;;;;;;;;;;;;;;3.97;95.36;97228.38;4965446;28;20312;-85
2021/11/27 14:52:35;;;;;;;;;;;;;;;3.87;93.57;97232.47;4965698;28;19929;-84
2021/11/27 14:55:03;;;;;;;;;;;;;;;3.82;92.86;97233.53;4966459;28;19922;-88
2021/11/27 14:57:29;;;;;;;;;;;;;;;3.78;91.83;97241.66;4966666;28;20012;-84
2021/11/27 14:59:55;;;;;;;;;;;;;;;3.75;91.21;97239.22;4966645;28;19937;-86
2021/11/27 15:02:22;;;;;;;;;;;;;;;3.81;90.42;97244.97;4964978;28;19957;-87
2021/11/27 15:04:47;;;;;;;;;;;;;;;3.74;90.11;97241.00;4966561;28;19925;-85
2021/11/27 15:07:13;;;;;;;;;;;;;;;3.64;89.88;97247.69;4965467;28;19918;-91
2021/11/27 15:09:39;;;;;;;;;;;;;;;3.61;89.28;97242.63;4964759;28;19929;-89
2021/11/27 15:12:04;;;;;;;;;;;;;;;3.60;88.99;97244.38;4965626;28;19988;-87
2021/11/27 15:14:30;;;;;;;;;;;;;;;3.59;88.51;97244.44;4964908;28;19922;-85
2021/11/27 15:16:55;;;;;;;;;;;;;;;3.55;88.39;97254.25;4966156;28;19918;-85
2021/11/27 15:19:21;;;;;;;;;;;;;;;3.53;88.23;97253.50;4972516;28;19922;-87
2021/11/27 15:21:49;;;;;;;;;;;;;;;3.56;87.88;97255.97;4966870;28;19961;-88
2021/11/27 15:24:17;;;;;;;;;;;;;;;3.48;87.56;97252.91;4964088;28;19918;-86
2021/11/27 15:26:42;;;;;;;;;;;;;;;3.46;87.63;97262.59;4966011;28;19993;-85
2021/11/27 15:29:08;;;;;;;;;;;;;;;3.44;87.46;97262.69;4965473;28;20370;-85
2021/11/27 15:31:33;;;;;;;;;;;;;;;3.40;87.41;97269.03;4965558;28;19925;-85
2021/11/27 15:33:59;;;;;;;;;;;;;;;3.36;87.17;97267.50;4966125;28;20439;-91
2021/11/27 15:36:25;;;;;;;;;;;;;;;3.29;87.01;97263.53;4965606;28;19922;-84
2021/11/27 15:38:50;;;;;;;;;;;;;;;3.32;87.08;97252.91;4964977;28;19922;-87
2021/11/27 15:41:19;;;;;;;;;;;;;;;3.30;86.75;97254.72;4965556;28;19925;-89
2021/11/27 15:43:48;;;;;;;;;;;;;;;3.32;86.58;97257.28;4965646;28;19922;-86
2021/11/27 15:46:13;;;;;;;;;;;;;;;3.29;86.34;97266.16;4965232;28;20271;-86
2021/11/27 15:48:38;;;;;;;;;;;;;;;3.21;86.26;97273.56;4966125;28;19925;-90
2021/11/27 15:51:04;;;;;;;;;;;;;;;3.22;86.05;97272.63;4963887;28;19929;-86
2021/11/27 15:53:29;;;;;;;;;;;;;;;3.18;86.06;97282.41;4964240;28;19919;-85
2021/11/27 15:55:55;;;;;;;;;;;;;;;3.24;85.73;97286.50;4964249;28;19922;-86
2021/11/27 15:58:20;;;;;;;;;;;;;;;3.16;85.63;97288.66;4964874;28;19922;-86
2021/11/27 16:00:45;;;;;;;;;;;;;;;3.09;85.74;97283.75;4964937;28;19965;-85
2021/11/27 16:03:11;;;;;;;;;;;;;;;3.17;85.53;97290.34;4964917;28;20055;-86
2021/11/27 16:05:36;;;;;;;;;;;;;;;3.11;85.51;97288.88;4965018;28;19922;-86
2021/11/27 16:08:02;;;;;;;;;;;;;;;3.10;85.03;97292.44;4962910;28;19923;-85
2021/11/27 16:10:27;;;;;;;;;;;;;;;3.04;84.90;97298.84;4964901;28;19922;-90
2021/11/27 16:12:52;;;;;;;;;;;;;;;3.02;85.05;97299.84;4964736;28;19928;-85
2021/11/27 16:15:17;;;;;;;;;;;;;;;2.89;84.78;97304.88;4971515;28;19919;-86
2021/11/27 16:17:43;;;;;;;;;;;;;;;2.85;85.04;97303.31;4964517;28;19930;-86
2021/11/27 16:20:08;;;;;;;;;;;;;;;2.86;85.43;97310.25;4964990;28;19918;-88
2021/11/27 16:22:34;;;;;;;;;;;;;;;2.80;85.62;97308.78;4963208;28;19956;-90
2021/11/27 16:24:59;;;;;;;;;;;;;;;2.79;85.70;97314.09;4963684;28;19918;-87
2021/11/27 16:27:25;;;;;;;;;;;;;;;3.38;86.07;97306.69;4964821;28;20013;-85
2021/11/27 16:29:50;;;;;;;;;;;;;;;2.91;86.65;97308.25;4964456;28;19961;-87
2021/11/27 16:32:15;;;;;;;;;;;;;;;2.73;87.01;97305.66;4964572;28;20441;-85
2021/11/27 16:34:42;;;;;;;;;;;;;;;2.72;87.02;97311.78;4964530;28;19919;-86
2021/11/27 16:37:07;;;;;;;;;;;;;;;2.65;87.06;97310.44;4963225;28;20273;-86
2021/11/27 16:39:33;;;;;;;;;;;;;;;2.60;87.06;97312.44;4962318;28;19921;-87
2021/11/27 16:41:58;;;;;;;;;;;;;;;2.61;87.01;97306.25;4963403;28;19942;-85
2021/11/27 16:44:23;;;;;;;;;;;;;;;2.58;86.97;97310.81;4964197;28;19915;-85
2021/11/27 16:46:49;;;;;;;;;;;;;;;2.56;86.79;97305.66;4964360;28;19918;-85
2021/11/27 16:49:15;;;;;;;;;;;;;;;2.53;86.74;97306.63;4964630;28;19926;-86
2021/11/27 16:51:41;;;;;;;;;;;;;;;2.54;86.86;97304.88;4964182;28;19941;-87
2021/11/27 16:54:06;;;;;;;;;;;;;;;2.52;86.72;97306.72;4962678;28;20131;-87
2021/11/27 16:56:32;;;;;;;;;;;;;;;2.52;86.48;97317.16;4964280;28;20005;-87
2021/11/27 16:58:57;;;;;;;;;;;;;;;2.48;86.40;97315.66;4962839;28;19997;-86
2021/11/27 17:01:22;;;;;;;;;;;;;;;2.45;86.35;97307.94;4961766;28;19922;-85
2021/11/27 17:03:48;;;;;;;;;;;;;;;2.41;86.04;97312.50;4964437;28;20516;-88
2021/11/27 17:06:13;;;;;;;;;;;;;;;2.44;86.04;97319.31;4961889;28;19931;-86
2021/11/27 17:08:38;;;;;;;;;;;;;;;2.39;85.74;97324.78;4962450;28;19919;-85
2021/11/27 17:11:07;;;;;;;;;;;;;;;2.40;85.73;97325.63;4970372;28;19980;-86
2021/11/27 17:13:34;;;;;;;;;;;;;;;2.34;85.50;97332.84;4962130;28;19929;-87
2021/11/27 17:15:59;;;;;;;;;;;;;;;2.32;85.30;97328.63;4962038;28;20016;-87
2021/11/27 17:18:24;;;;;;;;;;;;;;;2.29;85.22;97329.59;4970284;28;20005;-87
2021/11/27 17:20:50;;;;;;;;;;;;;;;2.29;85.12;97327.00;4960863;28;19922;-86
2021/11/27 17:23:15;;;;;;;;;;;;;;;2.28;85.12;97330.53;4961524;28;19923;-86
2021/11/27 17:25:41;;;;;;;;;;;;;;;2.28;84.99;97329.69;4962664;28;19926;-86
2021/11/27 17:28:08;;;;;;;;;;;;;;;2.26;84.92;97332.34;4961905;28;19919;-85
2021/11/27 17:30:33;;;;;;;;;;;;;;;2.30;85.18;97343.53;4961494;28;20270;-86
2021/11/27 17:32:59;;;;;;;;;;;;;;;2.25;84.92;97343.75;4962078;28;19933;-86
2021/11/27 17:35:24;;;;;;;;;;;;;;;2.25;85.06;97335.91;4960763;28;20357;-86
2021/11/27 17:37:49;;;;;;;;;;;;;;;2.24;85.04;97349.06;4959285;28;19927;-86
2021/11/27 17:40:15;;;;;;;;;;;;;;;2.21;84.95;97346.59;4963201;28;19961;-86
2021/11/27 17:42:41;;;;;;;;;;;;;;;2.23;84.66;97353.41;4993122;28;19936;-85
2021/11/27 17:45:07;;;;;;;;;;;;;;;2.21;84.38;97347.41;4960954;28;19922;-87
2021/11/27 17:47:33;;;;;;;;;;;;;;;2.24;84.44;97356.91;4960431;28;19932;-88
2021/11/27 17:49:59;;;;;;;;;;;;;;;2.27;84.45;97351.53;4957647;28;19926;-86
2021/11/27 17:52:24;;;;;;;;;;;;;;;2.23;84.30;97350.78;4960806;28;19925;-85
2021/11/27 17:54:49;;;;;;;;;;;;;;;2.21;84.23;97357.88;4962723;28;19926;-86
2021/11/27 17:57:15;;;;;;;;;;;;;;;2.22;84.06;97356.09;4961769;28;20301;-86
2021/11/27 17:59:40;;;;;;;;;;;;;;;2.22;84.04;97362.19;4961127;28;19937;-86
2021/11/27 18:02:06;;;;;;;;;;;;;;;2.20;83.78;97360.56;4960732;28;20377;-86
2021/11/27 18:04:35;;;;;;;;;;;;;;;2.20;83.61;97373.63;4961135;28;19930;-86
2021/11/27 18:07:01;;;;;;;;;;;;;;;2.18;83.58;97376.31;4957531;28;19922;-87
2021/11/27 18:09:26;;;;;;;;;;;;;;;2.18;83.35;97378.91;4968260;28;19923;-86
2021/11/27 18:11:51;;;;;;;;;;;;;;;2.17;83.38;97382.44;4961932;28;20037;-86
2021/11/27 18:14:16;;;;;;;;;;;;;;;2.17;83.50;97385.06;4961864;28;19970;-86
2021/11/27 18:16:42;;;;;;;;;;;;;;;2.18;83.44;97389.38;4961513;28;19930;-86
2021/11/27 18:19:07;;;;;;;;;;;;;;;2.19;83.41;97385.84;4960240;28;19922;-86
2021/11/27 18:21:38;;;;;;;;;;;;;;;2.14;83.26;97391.28;4961311;28;19929;-86
2021/11/27 18:24:06;;;;;;;;;;;;;;;2.16;83.26;97401.66;4968185;28;19922;-86
2021/11/27 18:29:16;;;;;;;;;;;;;;;2.13;83.17;97397.41;4960564;28;19934;-86
2021/11/27 18:31:41;;;;;;;;;;;;;;;2.15;83.13;97402.56;4958883;28;20290;-86
2021/11/27 18:34:08;;;;;;;;;;;;;;;2.16;82.89;97399.91;4962925;28;19925;-86
2021/11/27 18:36:33;;;;;;;;;;;;;;;2.13;82.75;97407.03;4962685;28;19930;-86
2021/11/27 18:39:00;;;;;;;;;;;;;;;2.12;82.63;97418.41;4960153;28;19918;-86
2021/11/27 18:41:26;;;;;;;;;;;;;;;2.16;83.02;97419.97;4961375;28;20365;-86
2021/11/27 18:43:51;;;;;;;;;;;;;;;2.16;82.84;97425.19;4960409;28;19922;-86
2021/11/27 18:46:16;;;;;;;;;;;;;;;2.19;82.76;97414.59;4962940;28;19926;-85